高雄塔台+地面

METAR RCKH 220530Z 27010KT 9999 FEW018 BKN150 32/23 Q1009 NOSIG RMK 27010KT/R09 A2982=